Time;durP1;ratioP1;P1;durP2;ratioP2;P2;SDS_P1;SDS_P2;PMS_P1;PMS_P2;Temp;Humidity;BMP_temperature;BMP_pressure;BME280_temperature;BME280_humidity;BME280_pressure;Samples;Min_cycle;Max_cycle;Signal;HPM_P1;HPM_P2
2022/03/27 00:01:09;;;;;;;0.57;0.57;;;10.10;93.10;;;;;;5055202;28;20021;-74
2022/03/27 00:03:35;;;;;;;1.05;0.90;;;10.00;93.30;;;;;;5055162;28;20472;-73
2022/03/27 00:06:00;;;;;;;0.68;0.68;;;9.80;93.70;;;;;;5055218;28;20455;-74
2022/03/27 00:08:26;;;;;;;2.25;0.93;;;9.70;94.00;;;;;;5055481;28;20025;-82
2022/03/27 00:13:36;;;;;;;1.67;1.15;;;9.50;94.50;;;;;;5055067;28;20509;-82
2022/03/27 00:16:01;;;;;;;4.72;2.85;;;9.40;95.00;;;;;;5054927;28;20059;-74
2022/03/27 00:18:27;;;;;;;0.50;0.50;;;9.30;95.20;;;;;;5055201;28;20025;-82
2022/03/27 00:20:53;;;;;;;1.45;1.35;;;9.20;95.10;;;;;;5063347;28;20468;-82
2022/03/27 00:23:19;;;;;;;1.15;1.10;;;9.20;95.10;;;;;;5055269;28;20025;-82
2022/03/27 00:25:45;;;;;;;1.48;1.38;;;9.20;95.20;;;;;;5054866;28;20542;-81
2022/03/27 00:28:12;;;;;;;0.50;0.50;;;9.10;95.40;;;;;;5055099;28;20473;-73
2022/03/27 00:30:38;;;;;;;0.13;0.13;;;9.10;95.50;;;;;;5049239;28;20021;-81
2022/03/27 00:33:04;;;;;;;10.20;1.88;;;9.00;95.60;;;;;;5034832;28;20468;-73
2022/03/27 00:35:31;;;;;;;0.35;0.35;;;9.00;95.60;;;;;;5035313;28;20024;-74
2022/03/27 00:37:56;;;;;;;5.72;1.45;;;9.00;95.80;;;;;;5047157;28;20045;-73
2022/03/27 00:40:22;;;;;;;2.30;2.00;;;9.00;95.90;;;;;;5054792;28;20067;-82
2022/03/27 00:42:48;;;;;;;0.77;0.77;;;9.00;95.90;;;;;;5054889;28;20545;-81
2022/03/27 00:45:14;;;;;;;0.25;0.25;;;9.00;95.80;;;;;;5056072;28;20041;-81
2022/03/27 00:47:39;;;;;;;1.42;1.35;;;9.10;95.60;;;;;;5054908;28;20032;-73
2022/03/27 00:50:06;;;;;;;2.20;2.00;;;9.20;95.40;;;;;;5054518;28;20037;-74
2022/03/27 00:52:32;;;;;;;0.82;0.70;;;9.30;95.30;;;;;;5054554;28;20059;-74
2022/03/27 00:54:58;;;;;;;6.10;2.85;;;9.40;95.00;;;;;;5054657;28;20095;-74
2022/03/27 00:57:24;;;;;;;0.55;0.55;;;9.50;94.90;;;;;;5053853;28;20405;-81
2022/03/27 00:59:50;;;;;;;1.98;1.50;;;9.60;94.90;;;;;;5052855;28;20075;-74
2022/03/27 01:02:15;;;;;;;2.55;2.03;;;9.60;94.70;;;;;;5054197;28;20480;-74
2022/03/27 01:04:44;;;;;;;3.75;1.58;;;9.50;94.80;;;;;;5055016;28;20025;-82
2022/03/27 01:07:18;;;;;;;4.75;1.77;;;9.50;94.90;;;;;;5071351;28;20036;-77
2022/03/27 01:09:45;;;;;;;2.22;1.73;;;9.60;94.80;;;;;;5056761;28;20100;-81
2022/03/27 01:12:22;;;;;;;4.68;3.17;;;9.60;94.80;;;;;;5053491;28;20021;-81
2022/03/27 01:14:49;;;;;;;1.48;1.38;;;9.60;94.80;;;;;;5053187;28;20376;-81
2022/03/27 01:17:16;;;;;;;7.50;2.13;;;9.60;94.80;;;;;;5053620;28;20029;-81
2022/03/27 01:19:48;;;;;;;4.90;2.83;;;9.60;94.70;;;;;;5054042;28;20108;-73
2022/03/27 01:22:15;;;;;;;1.58;1.48;;;9.60;94.70;;;;;;5054033;28;20024;-73
2022/03/27 01:24:41;;;;;;;1.30;1.20;;;9.60;94.60;;;;;;5061512;28;20067;-78
2022/03/27 01:27:08;;;;;;;2.72;1.60;;;9.60;94.50;;;;;;5058605;28;20079;-81
2022/03/27 01:29:34;;;;;;;2.40;2.22;;;9.50;94.80;;;;;;5053791;28;20017;-81
2022/03/27 01:32:00;;;;;;;36.90;3.78;;;9.40;94.90;;;;;;5036688;28;20032;-81
2022/03/27 01:34:30;;;;;;;2.25;1.90;;;9.30;95.00;;;;;;5033995;28;20041;-73
2022/03/27 01:36:56;;;;;;;0.47;0.47;;;9.30;95.10;;;;;;5038083;28;20035;-81
2022/03/27 01:39:21;;;;;;;5.18;1.48;;;9.30;95.30;;;;;;5053581;28;20021;-81
2022/03/27 01:41:47;;;;;;;12.77;1.58;;;9.30;95.30;;;;;;5053081;28;20083;-80
2022/03/27 01:44:15;;;;;;;1.45;1.23;;;9.30;95.30;;;;;;5051921;28;20037;-73
2022/03/27 01:46:43;;;;;;;1.02;1.02;;;9.30;95.20;;;;;;5052974;28;20033;-73
2022/03/27 01:49:12;;;;;;;1.35;1.25;;;9.30;95.30;;;;;;5053452;28;20045;-73
2022/03/27 01:51:38;;;;;;;0.75;0.75;;;9.20;95.30;;;;;;5053632;28;20032;-81
2022/03/27 01:54:05;;;;;;;1.02;0.98;;;9.20;95.60;;;;;;5053173;28;20027;-73
2022/03/27 01:56:31;;;;;;;1.80;1.50;;;9.30;95.30;;;;;;5052448;28;20025;-80
2022/03/27 01:58:57;;;;;;;0.52;0.52;;;9.30;95.20;;;;;;5053101;28;20515;-73
2022/03/27 02:01:23;;;;;;;2.00;1.77;;;9.30;95.10;;;;;;5053240;28;20061;-81
2022/03/27 02:03:49;;;;;;;3.08;1.20;;;9.20;95.30;;;;;;5055069;28;20052;-72
2022/03/27 02:06:15;;;;;;;2.08;1.80;;;9.20;95.40;;;;;;5052880;28;20025;-73
2022/03/27 02:08:44;;;;;;;2.25;2.00;;;9.20;95.40;;;;;;5038884;28;20491;-80
2022/03/27 02:11:10;;;;;;;1.63;1.55;;;9.20;95.30;;;;;;5032874;28;20029;-80
2022/03/27 02:13:36;;;;;;;2.08;1.38;;;9.20;95.40;;;;;;5033235;28;20030;-81
2022/03/27 02:16:03;;;;;;;2.45;2.25;;;9.20;95.40;;;;;;5032956;28;20040;-80
2022/03/27 02:18:30;;;;;;;1.60;1.50;;;9.10;95.40;;;;;;5032708;28;20021;-73
2022/03/27 02:20:56;;;;;;;2.63;2.20;;;9.10;95.40;;;;;;5033432;28;20025;-73
2022/03/27 02:23:23;;;;;;;1.80;1.58;;;9.10;95.20;;;;;;5032532;28;20370;-73
2022/03/27 02:25:49;;;;;;;1.15;1.05;;;9.10;95.30;;;;;;5050197;28;20017;-80
2022/03/27 02:28:15;;;;;;;1.55;1.45;;;9.10;95.40;;;;;;5040095;28;20095;-73
2022/03/27 02:30:41;;;;;;;2.05;1.70;;;9.10;95.30;;;;;;5033219;28;20053;-73
2022/03/27 02:33:07;;;;;;;6.60;2.35;;;9.10;95.30;;;;;;5032786;28;20044;-73
2022/03/27 02:35:33;;;;;;;4.70;2.88;;;9.10;95.30;;;;;;5033758;28;20091;-81
2022/03/27 02:38:00;;;;;;;1.33;1.25;;;9.00;95.40;;;;;;5032880;28;20025;-73
2022/03/27 02:40:26;;;;;;;1.83;1.67;;;9.00;95.60;;;;;;5034276;28;20583;-73
2022/03/27 02:42:52;;;;;;;1.73;1.48;;;8.90;95.70;;;;;;5033021;28;20025;-73
2022/03/27 02:45:18;;;;;;;1.73;1.27;;;8.90;95.90;;;;;;5032817;28;20048;-73
2022/03/27 02:47:44;;;;;;;5.65;2.55;;;8.80;96.00;;;;;;5032978;28;20064;-81
2022/03/27 02:50:10;;;;;;;2.72;1.50;;;8.60;96.40;;;;;;5032781;28;20021;-73
2022/03/27 02:52:36;;;;;;;1.85;1.75;;;8.50;96.70;;;;;;5047003;28;20059;-73
2022/03/27 02:55:02;;;;;;;1.05;1.00;;;8.50;97.00;;;;;;5052641;28;20053;-73
2022/03/27 02:57:28;;;;;;;4.28;0.93;;;8.50;96.80;;;;;;5057994;28;20423;-81
2022/03/27 02:59:54;;;;;;;0.57;0.57;;;8.50;96.70;;;;;;5052480;28;20013;-73
2022/03/27 03:02:20;;;;;;;2.40;1.85;;;8.50;96.70;;;;;;5052424;28;20036;-81
2022/03/27 03:04:46;;;;;;;0.82;0.82;;;8.50;96.70;;;;;;5053008;28;20395;-73
2022/03/27 03:07:12;;;;;;;2.33;1.23;;;8.70;96.50;;;;;;5052656;28;20037;-73
2022/03/27 03:09:38;;;;;;;2.35;0.75;;;8.70;96.50;;;;;;5052119;28;20458;-81
2022/03/27 03:12:05;;;;;;;1.60;0.77;;;8.60;96.60;;;;;;5052495;28;20496;-73
2022/03/27 03:14:31;;;;;;;9.35;1.48;;;8.60;96.80;;;;;;5053850;28;20024;-72
2022/03/27 03:16:57;;;;;;;0.35;0.35;;;8.50;97.00;;;;;;5064095;28;20029;-73
2022/03/27 03:19:24;;;;;;;1.30;1.23;;;8.50;96.80;;;;;;5052308;28;20083;-73
2022/03/27 03:21:50;;;;;;;1.27;0.90;;;8.40;97.00;;;;;;5052604;28;20544;-73
2022/03/27 03:24:16;;;;;;;8.38;2.58;;;8.40;97.20;;;;;;5056083;28;20060;-81
2022/03/27 03:26:41;;;;;;;9.82;2.40;;;8.40;97.20;;;;;;5055846;28;20032;-81
2022/03/27 03:29:07;;;;;;;3.80;2.50;;;8.30;97.50;;;;;;5055890;28;20017;-73
2022/03/27 03:31:32;;;;;;;3.67;1.50;;;8.20;97.50;;;;;;5053731;28;20400;-73
2022/03/27 03:33:59;;;;;;;0.65;0.65;;;8.20;97.50;;;;;;5036855;28;20083;-73
2022/03/27 03:36:24;;;;;;;7.47;2.53;;;8.10;97.80;;;;;;5036365;28;20052;-81
2022/03/27 03:38:51;;;;;;;0.75;0.75;;;8.10;97.80;;;;;;5056142;28;20102;-73
2022/03/27 03:41:17;;;;;;;19.15;2.60;;;8.10;98.00;;;;;;5055717;28;20025;-80
2022/03/27 03:43:43;;;;;;;7.47;2.75;;;8.10;98.20;;;;;;5054612;28;20041;-81
2022/03/27 03:46:09;;;;;;;2.67;2.47;;;8.10;98.20;;;;;;5056574;28;20017;-72
2022/03/27 03:48:35;;;;;;;0.40;0.40;;;8.10;98.10;;;;;;5056940;28;20055;-81
2022/03/27 03:51:01;;;;;;;1.48;1.23;;;8.10;98.20;;;;;;5054240;28;20053;-81
2022/03/27 03:53:27;;;;;;;5.30;1.23;;;8.10;98.30;;;;;;5055684;28;20069;-81
2022/03/27 03:55:53;;;;;;;4.13;1.55;;;8.20;98.10;;;;;;5055616;28;20112;-80
2022/03/27 03:58:19;;;;;;;8.73;1.27;;;8.30;98.00;;;;;;5055348;28;20025;-73
2022/03/27 04:00:46;;;;;;;5.78;0.98;;;8.30;97.80;;;;;;5055212;28;20025;-81
2022/03/27 04:03:13;;;;;;;2.13;2.03;;;8.40;97.80;;;;;;5054999;28;20017;-73
2022/03/27 04:05:39;;;;;;;6.43;2.20;;;8.30;97.80;;;;;;5055870;28;20045;-74
2022/03/27 04:08:05;;;;;;;2.67;0.93;;;8.20;98.10;;;;;;5054835;28;20064;-73
2022/03/27 04:10:30;;;;;;;3.08;2.05;;;8.20;98.40;;;;;;5054930;28;20472;-74
2022/03/27 04:12:56;;;;;;;3.40;1.27;;;8.20;98.60;;;;;;5054747;28;20096;-73
2022/03/27 04:15:22;;;;;;;1.58;1.48;;;8.10;98.40;;;;;;5055522;28;20033;-73
2022/03/27 04:17:51;;;;;;;6.32;2.35;;;8.00;98.70;;;;;;5054904;28;20113;-81
2022/03/27 04:20:17;;;;;;;0.90;0.90;;;7.90;98.70;;;;;;5053850;28;20574;-73
2022/03/27 04:22:44;;;;;;;0.82;0.82;;;7.90;99.00;;;;;;5056707;28;20021;-82
2022/03/27 04:25:11;;;;;;;1.65;1.50;;;7.90;99.10;;;;;;5054813;28;20077;-73
2022/03/27 04:27:38;;;;;;;12.23;3.28;;;7.80;99.20;;;;;;5054676;28;20487;-76
2022/03/27 04:30:09;;;;;;;0.52;0.52;;;7.80;99.40;;;;;;5054933;28;20384;-84
2022/03/27 04:32:36;;;;;;;1.40;1.35;;;7.70;99.50;;;;;;5044906;28;20120;-83
2022/03/27 04:35:02;;;;;;;2.40;2.20;;;7.70;99.60;;;;;;5035332;28;20021;-76
2022/03/27 04:37:28;;;;;;;14.45;1.40;;;7.70;99.70;;;;;;5043504;28;20045;-76
2022/03/27 04:40:01;;;;;;;2.25;0.55;;;7.70;99.70;;;;;;5059979;28;20040;-75
2022/03/27 04:42:27;;;;;;;2.50;1.90;;;7.80;99.80;;;;;;5054346;28;20032;-84
2022/03/27 04:44:52;;;;;;;4.97;0.52;;;7.80;99.60;;;;;;5054712;28;20051;-83
2022/03/27 04:47:18;;;;;;;1.27;1.17;;;7.80;99.80;;;;;;5054833;28;20415;-76
2022/03/27 04:49:44;;;;;;;1.40;1.30;;;7.90;99.70;;;;;;5054846;28;20074;-75
2022/03/27 04:52:09;;;;;;;1.00;0.52;;;7.90;99.70;;;;;;5054318;28;20036;-76
2022/03/27 04:54:35;;;;;;;4.20;2.28;;;7.90;99.50;;;;;;5054523;28;20024;-76
2022/03/27 04:57:01;;;;;;;0.63;0.63;;;8.00;99.60;;;;;;5054642;28;20024;-84
2022/03/27 04:59:27;;;;;;;3.83;2.75;;;8.00;99.60;;;;;;5070375;28;20037;-84
2022/03/27 05:01:53;;;;;;;1.10;1.10;;;8.00;99.60;;;;;;5054551;28;20029;-75
2022/03/27 05:04:18;;;;;;;1.25;1.15;;;8.00;99.50;;;;;;5054305;28;20029;-76
2022/03/27 05:06:44;;;;;;;3.40;0.98;;;8.00;99.50;;;;;;5054969;28;20051;-76
2022/03/27 05:09:09;;;;;;;0.88;0.88;;;7.90;99.60;;;;;;5054118;28;20028;-76
2022/03/27 05:11:36;;;;;;;0.60;0.60;;;7.90;99.60;;;;;;5054337;28;20052;-76
2022/03/27 05:14:02;;;;;;;0.95;0.95;;;7.80;99.70;;;;;;5053907;28;20052;-73
2022/03/27 05:16:27;;;;;;;1.27;1.17;;;7.70;99.90;;;;;;5054082;28;20534;-81
2022/03/27 05:18:53;;;;;;;1.33;1.33;;;7.70;99.90;;;;;;5057638;28;20400;-73
2022/03/27 05:21:20;;;;;;;1.30;1.20;;;7.70;99.90;;;;;;5053767;28;20059;-73
2022/03/27 05:23:46;;;;;;;0.50;0.32;;;7.60;99.90;;;;;;5054265;28;20023;-73
2022/03/27 05:26:12;;;;;;;3.08;1.42;;;7.70;99.90;;;;;;5053924;28;20103;-73
2022/03/27 05:28:37;;;;;;;1.38;1.27;;;7.60;99.90;;;;;;5053798;28;20025;-81
2022/03/27 05:31:08;;;;;;;1.00;1.00;;;7.50;99.90;;;;;;5054009;28;20025;-80
2022/03/27 05:33:36;;;;;;;0.10;0.10;;;7.50;99.90;;;;;;5049387;28;20431;-82
2022/03/27 05:36:01;;;;;;;4.72;0.82;;;7.50;99.90;;;;;;5033795;28;20021;-81
2022/03/27 05:38:27;;;;;;;3.63;1.98;;;7.40;99.90;;;;;;5062211;28;20048;-81
2022/03/27 05:40:53;;;;;;;3.60;1.58;;;7.40;99.90;;;;;;5053600;28;20029;-73
2022/03/27 05:43:19;;;;;;;0.63;0.63;;;7.40;99.90;;;;;;5053673;28;20052;-81
2022/03/27 05:45:44;;;;;;;2.60;1.55;;;7.30;99.90;;;;;;5053180;28;20053;-81
2022/03/27 05:48:12;;;;;;;0.95;0.90;;;7.30;99.90;;;;;;5053746;28;20032;-81
2022/03/27 05:50:37;;;;;;;2.40;1.02;;;7.20;99.90;;;;;;5058984;28;20041;-81
2022/03/27 05:53:03;;;;;;;12.25;0.82;;;7.20;99.90;;;;;;5052242;28;20025;-81
2022/03/27 05:55:29;;;;;;;0.70;0.70;;;7.10;99.90;;;;;;5053029;28;20117;-81
2022/03/27 05:57:54;;;;;;;1.23;1.15;;;7.10;99.90;;;;;;5052281;28;20068;-80
2022/03/27 06:00:21;;;;;;;2.00;1.35;;;7.10;99.90;;;;;;5052638;28;20438;-81
2022/03/27 06:02:50;;;;;;;0.77;0.77;;;7.10;99.90;;;;;;5054446;28;20055;-81
2022/03/27 06:05:17;;;;;;;1.02;1.00;;;7.20;99.90;;;;;;5054641;28;20060;-81
2022/03/27 06:07:47;;;;;;;1.17;1.17;;;7.20;99.90;;;;;;5053537;28;20479;-81
2022/03/27 06:10:14;;;;;;;0.90;0.90;;;7.40;99.90;;;;;;5052786;28;20055;-81
2022/03/27 06:12:43;;;;;;;1.25;1.15;;;7.50;99.90;;;;;;5053366;28;20426;-82
2022/03/27 06:15:09;;;;;;;1.38;1.27;;;7.70;99.90;;;;;;5053290;28;20017;-73
2022/03/27 06:17:45;;;;;;;8.48;1.77;;;7.80;99.90;;;;;;5055050;28;20075;-81
2022/03/27 06:20:16;;;;;;;5.28;2.08;;;7.80;99.90;;;;;;5052870;28;20146;-82
2022/03/27 06:22:42;;;;;;;2.30;1.52;;;7.90;99.90;;;;;;5053336;28;20052;-73
2022/03/27 06:25:09;;;;;;;1.38;1.35;;;7.90;99.90;;;;;;5051727;28;20096;-80
2022/03/27 06:27:36;;;;;;;0.95;0.75;;;7.80;99.90;;;;;;5052565;28;20021;-82
2022/03/27 06:30:04;;;;;;;1.95;1.60;;;7.80;99.90;;;;;;5054416;28;20033;-81
2022/03/27 06:32:29;;;;;;;5.03;0.93;;;7.80;99.90;;;;;;5043605;28;20021;-82
2022/03/27 06:34:58;;;;;;;1.25;1.23;;;7.80;99.90;;;;;;5033526;28;20112;-81
2022/03/27 06:37:26;;;;;;;1.50;1.40;;;7.80;99.90;;;;;;5041296;28;20023;-82
2022/03/27 06:39:51;;;;;;;2.42;1.92;;;7.90;99.90;;;;;;5052605;28;20020;-73
2022/03/27 06:42:18;;;;;;;1.95;1.45;;;8.00;99.90;;;;;;5053142;28;20060;-81
2022/03/27 06:44:43;;;;;;;1.45;1.13;;;8.10;99.90;;;;;;5052900;28;20389;-73
2022/03/27 06:47:09;;;;;;;1.08;0.47;;;8.20;99.90;;;;;;5052798;28;20033;-81
2022/03/27 06:49:35;;;;;;;1.23;1.23;;;8.20;99.90;;;;;;5053064;28;20396;-73
2022/03/27 06:52:01;;;;;;;1.25;0.80;;;8.20;99.90;;;;;;5058290;28;20033;-81
2022/03/27 06:54:30;;;;;;;0.85;0.85;;;8.30;99.90;;;;;;5052780;28;20017;-81
2022/03/27 06:56:56;;;;;;;3.17;2.92;;;8.40;99.90;;;;;;5054574;28;20071;-82
2022/03/27 06:59:21;;;;;;;1.30;1.20;;;8.50;99.90;;;;;;5056456;28;20484;-73
2022/03/27 07:04:31;;;;;;;0.70;0.70;;;8.70;99.90;;;;;;5056879;28;20028;-81
2022/03/27 07:06:57;;;;;;;1.60;1.50;;;8.80;99.90;;;;;;5057182;28;20033;-79
2022/03/27 07:09:22;;;;;;;0.85;0.63;;;8.90;99.90;;;;;;5056496;28;20025;-82
2022/03/27 07:11:48;;;;;;;2.63;1.63;;;9.00;99.90;;;;;;5056886;28;20028;-81
2022/03/27 07:14:14;;;;;;;2.10;2.00;;;9.20;99.90;;;;;;5060026;28;20025;-73
2022/03/27 07:16:40;;;;;;;1.02;0.98;;;9.30;99.90;;;;;;5056931;28;20029;-73
2022/03/27 07:19:08;;;;;;;1.95;1.77;;;9.40;99.90;;;;;;5056215;28;20377;-81
2022/03/27 07:21:34;;;;;;;0.75;0.52;;;9.50;99.90;;;;;;5056500;28;20480;-73
2022/03/27 07:24:00;;;;;;;0.85;0.85;;;9.60;99.90;;;;;;5060149;28;20040;-80
2022/03/27 07:26:26;;;;;;;0.93;0.93;;;9.80;99.90;;;;;;5056468;28;20029;-81
2022/03/27 07:28:51;;;;;;;12.00;2.83;;;9.90;99.90;;;;;;5056395;28;20087;-74
2022/03/27 07:31:17;;;;;;;1.65;1.55;;;10.00;99.90;;;;;;5056276;28;20041;-74
2022/03/27 07:33:43;;;;;;;8.30;3.47;;;10.20;99.40;;;;;;5057114;28;20041;-81
2022/03/27 07:36:08;;;;;;;1.65;1.58;;;10.20;99.30;;;;;;5042720;28;20124;-82
2022/03/27 07:38:34;;;;;;;2.97;0.85;;;10.30;99.50;;;;;;5053355;28;20480;-75
2022/03/27 07:41:01;;;;;;;3.05;2.00;;;10.50;99.50;;;;;;5055984;28;20113;-82
2022/03/27 07:43:27;;;;;;;2.80;1.48;;;10.70;99.50;;;;;;5056156;28;20465;-82
2022/03/27 07:45:53;;;;;;;3.22;2.53;;;10.80;99.40;;;;;;5062744;28;20053;-82
2022/03/27 07:48:19;;;;;;;4.43;2.03;;;11.00;99.30;;;;;;5056050;28;20346;-81
2022/03/27 07:50:46;;;;;;;1.48;1.08;;;11.20;98.90;;;;;;5055757;28;20420;-73
2022/03/27 07:53:12;;;;;;;10.75;2.33;;;11.40;98.70;;;;;;5055920;28;20017;-81
2022/03/27 07:55:38;;;;;;;1.50;1.27;;;11.60;98.00;;;;;;5055567;28;20075;-74
2022/03/27 07:58:04;;;;;;;0.70;0.70;;;11.90;97.70;;;;;;5055382;28;20017;-81
2022/03/27 08:00:30;;;;;;;2.40;1.85;;;12.40;97.20;;;;;;5054433;28;20032;-82
2022/03/27 08:02:56;;;;;;;3.67;1.60;;;14.50;94.40;;;;;;5058268;28;20037;-82
2022/03/27 08:05:23;;;;;;;9.80;2.65;;;16.80;91.60;;;;;;5055720;28;20430;-82
2022/03/27 08:07:49;;;;;;;13.73;2.97;;;18.10;89.30;;;;;;5055244;28;20079;-83
2022/03/27 08:10:15;;;;;;;7.18;3.28;;;19.00;87.50;;;;;;5055075;28;20442;-82
2022/03/27 08:12:42;;;;;;;10.70;2.55;;;19.70;83.90;;;;;;5056036;28;20498;-77
2022/03/27 08:15:08;;;;;;;6.60;2.92;;;20.40;83.30;;;;;;5063453;28;20039;-82
2022/03/27 08:17:34;;;;;;;6.22;2.88;;;21.00;81.30;;;;;;5054028;28;20062;-83
2022/03/27 08:20:01;;;;;;;12.52;2.72;;;21.20;82.00;;;;;;5055303;28;20017;-83
2022/03/27 08:22:29;;;;;;;10.48;3.55;;;21.60;79.90;;;;;;5055353;28;20025;-83
2022/03/27 08:24:55;;;;;;;7.80;2.47;;;21.80;79.10;;;;;;5057031;28;20017;-82
2022/03/27 08:27:21;;;;;;;9.38;3.60;;;22.20;78.40;;;;;;5064431;28;20062;-82
2022/03/27 08:29:47;;;;;;;6.32;2.35;;;22.50;77.90;;;;;;5054679;28;20038;-83
2022/03/27 08:32:15;;;;;;;12.80;3.30;;;22.70;78.90;;;;;;5047652;28;20099;-83
2022/03/27 08:34:43;;;;;;;9.27;2.50;;;22.80;77.60;;;;;;5035570;28;20040;-76
2022/03/27 08:37:12;;;;;;;3.50;1.80;;;22.10;78.10;;;;;;5044848;28;20032;-82
2022/03/27 08:39:39;;;;;;;7.38;1.58;;;20.20;81.10;;;;;;5055154;28;20017;-75
2022/03/27 08:42:06;;;;;;;2.17;1.83;;;19.30;84.40;;;;;;5055299;28;20500;-82
2022/03/27 08:44:35;;;;;;;6.40;2.50;;;20.70;81.80;;;;;;5054980;28;20419;-82
2022/03/27 08:47:04;;;;;;;8.85;3.97;;;22.40;79.10;;;;;;5064563;28;20025;-81
2022/03/27 08:49:32;;;;;;;11.05;2.85;;;23.20;78.80;;;;;;5055691;28;20036;-76
2022/03/27 08:52:23;;;;;;;9.77;2.53;;;23.90;76.30;;;;;;5053045;28;20070;-76
2022/03/27 08:55:05;;;;;;;10.98;4.10;;;24.70;75.70;;;;;;5053346;28;20104;-76
2022/03/27 08:57:49;;;;;;;8.70;2.97;;;25.30;74.30;;;;;;5054612;28;20043;-76
2022/03/27 09:00:15;;;;;;;8.60;3.53;;;25.50;73.70;;;;;;5055075;28;20527;-75
2022/03/27 09:02:41;;;;;;;5.05;2.42;;;25.60;73.90;;;;;;5055705;28;20029;-76
2022/03/27 09:05:08;;;;;;;10.95;3.50;;;26.00;73.30;;;;;;5054729;28;20079;-76
2022/03/27 09:07:34;;;;;;;10.70;4.05;;;26.40;72.40;;;;;;5054564;28;20420;-80
2022/03/27 09:10:06;;;;;;;7.78;3.55;;;26.40;73.30;;;;;;5053968;28;20033;-74
2022/03/27 09:12:33;;;;;;;6.15;3.30;;;26.30;72.70;;;;;;5055459;28;20515;-74
2022/03/27 09:15:00;;;;;;;7.50;3.63;;;26.50;72.40;;;;;;5054093;28;20021;-79
2022/03/27 09:17:26;;;;;;;7.63;3.80;;;27.20;70.40;;;;;;5052505;28;20021;-75
2022/03/27 09:19:52;;;;;;;10.90;4.28;;;27.50;70.00;;;;;;5052829;28;20373;-80
2022/03/27 09:22:29;;;;;;;7.07;2.67;;;27.40;67.50;;;;;;5053241;28;20033;-75
2022/03/27 09:24:59;;;;;;;6.80;2.83;;;27.60;67.60;;;;;;5054007;28;20033;-75
2022/03/27 09:27:34;;;;;;;6.07;2.58;;;28.00;66.40;;;;;;5053878;28;20044;-75
2022/03/27 09:30:09;;;;;;;3.80;2.53;;;28.30;66.20;;;;;;5052499;28;20079;-75
2022/03/27 09:32:36;;;;;;;7.07;3.10;;;28.10;65.80;;;;;;5043444;28;20021;-80
2022/03/27 09:35:14;;;;;;;5.82;2.88;;;28.00;67.90;;;;;;5034514;28;20388;-74
2022/03/27 09:37:46;;;;;;;4.80;2.85;;;27.80;68.60;;;;;;5046939;28;20021;-79
2022/03/27 09:40:13;;;;;;;9.35;1.77;;;27.90;68.50;;;;;;5053268;28;20036;-80
2022/03/27 09:42:40;;;;;;;7.63;2.30;;;27.90;65.40;;;;;;5053830;28;20021;-74
2022/03/27 09:45:25;;;;;;;3.10;2.13;;;27.40;64.30;;;;;;5053846;28;20040;-79
2022/03/27 09:47:55;;;;;;;5.18;2.55;;;27.30;66.70;;;;;;5053799;28;20158;-74
2022/03/27 09:50:34;;;;;;;5.47;2.38;;;26.60;67.40;;;;;;5053299;28;20029;-80
2022/03/27 09:53:22;;;;;;;2.65;1.50;;;25.60;68.70;;;;;;5053351;28;20024;-82
2022/03/27 09:56:11;;;;;;;7.65;2.25;;;24.70;67.30;;;;;;5053322;28;20051;-83
2022/03/27 09:58:42;;;;;;;4.53;1.95;;;23.30;69.00;;;;;;5052565;28;20108;-82
2022/03/27 10:01:18;;;;;;;9.50;1.88;;;22.70;71.20;;;;;;5053370;28;20032;-82
2022/03/27 10:04:16;;;;;;;6.70;2.17;;;22.90;71.90;;;;;;5064541;28;20029;-81
2022/03/27 10:06:43;;;;;;;2.83;1.80;;;22.80;72.90;;;;;;5031016;28;20052;-75
2022/03/27 10:09:10;;;;;;;2.97;1.73;;;22.70;74.50;;;;;;5052794;28;20059;-75
2022/03/27 10:11:38;;;;;;;1.13;1.13;;;22.50;73.60;;;;;;5053473;28;20388;-82
2022/03/27 10:14:05;;;;;;;3.25;1.42;;;22.30;71.90;;;;;;5052247;28;20021;-75
2022/03/27 10:16:36;;;;;;;1.67;1.45;;;22.20;72.90;;;;;;5052734;28;20028;-83
2022/03/27 10:19:08;;;;;;;3.90;1.40;;;21.60;74.40;;;;;;5052640;28;20033;-75
2022/03/27 10:21:36;;;;;;;5.60;1.90;;;21.40;76.10;;;;;;5053321;28;20021;-74
2022/03/27 10:24:11;;;;;;;2.70;1.35;;;21.70;74.10;;;;;;5052930;28;20047;-81
2022/03/27 10:26:39;;;;;;;3.15;1.40;;;22.00;74.30;;;;;;5053092;28;20017;-80
2022/03/27 10:29:07;;;;;;;4.15;1.75;;;22.30;74.60;;;;;;5053126;28;20108;-75
2022/03/27 10:31:33;;;;;;;4.05;1.60;;;22.60;73.20;;;;;;5050415;28;20437;-81
2022/03/27 10:34:00;;;;;;;1.55;0.95;;;22.60;73.90;;;;;;5032462;28;20033;-75
2022/03/27 10:36:49;;;;;;;1.35;0.95;;;22.80;72.00;;;;;;5033342;28;20472;-75
2022/03/27 10:39:25;;;;;;;4.88;1.17;;;22.50;69.80;;;;;;5046820;28;20105;-75
2022/03/27 10:42:09;;;;;;;1.73;1.15;;;22.60;70.50;;;;;;5052744;28;20028;-83
2022/03/27 10:44:51;;;;;;;4.72;0.93;;;22.80;69.10;;;;;;5052586;28;20040;-75
2022/03/27 10:47:22;;;;;;;1.23;0.87;;;22.90;70.40;;;;;;5055196;28;20537;-74
2022/03/27 10:50:05;;;;;;;6.50;1.88;;;22.70;69.90;;;;;;5052733;28;20260;-75
2022/03/27 10:52:59;;;;;;;1.95;0.52;;;22.60;69.20;;;;;;5052521;28;20108;-85
2022/03/27 10:55:40;;;;;;;3.30;1.77;;;22.20;68.30;;;;;;5052490;28;20025;-85
2022/03/27 10:58:35;;;;;;;5.38;1.05;;;22.30;68.30;;;;;;5052688;28;20037;-74
2022/03/27 11:01:28;;;;;;;1.70;0.70;;;22.40;68.40;;;;;;5052270;28;20071;-83
2022/03/27 11:04:04;;;;;;;;;;;22.50;68.80;;;;;;5052690;28;20053;-84
2022/03/27 11:06:33;;;;;;;2.15;0.90;;;22.50;67.00;;;;;;5052286;28;19958;-74
2022/03/27 11:09:02;;;;;;;0.47;0.45;;;22.40;68.30;;;;;;5052319;28;20035;-74
2022/03/27 11:11:53;;;;;;;1.95;0.80;;;22.40;68.00;;;;;;5055250;28;20060;-84
2022/03/27 11:14:24;;;;;;;2.10;0.85;;;22.50;69.70;;;;;;5047376;28;20037;-83
2022/03/27 11:17:10;;;;;;;0.73;0.63;;;22.40;67.30;;;;;;5052262;28;20032;-83
2022/03/27 11:19:46;;;;;;;1.05;0.55;;;22.60;65.70;;;;;;5052229;28;20040;-84
2022/03/27 11:22:47;;;;;;;3.50;0.60;;;22.40;65.90;;;;;;5052529;28;20013;-83
2022/03/27 11:25:38;;;;;;;6.40;0.55;;;22.50;65.40;;;;;;5052076;28;20031;-74
2022/03/27 11:28:22;;;;;;;1.42;0.50;;;22.30;67.60;;;;;;5052083;28;20025;-74
2022/03/27 11:30:48;;;;;;;3.75;1.33;;;22.00;67.30;;;;;;5052918;28;20418;-84
2022/03/27 11:33:20;;;;;;;0.90;0.70;;;22.30;67.30;;;;;;5035919;28;20038;-74
2022/03/27 11:36:04;;;;;;;;;;;22.20;65.40;;;;;;5064759;28;20112;-73
2022/03/27 11:38:30;;;;;;;1.35;0.55;;;22.10;66.30;;;;;;5049743;28;19920;-84
2022/03/27 11:40:57;;;;;;;1.10;1.00;;;22.20;66.70;;;;;;5052270;28;20041;-85
2022/03/27 11:43:33;;;;;;;1.13;0.85;;;22.40;65.40;;;;;;5052160;28;20554;-84
2022/03/27 11:46:01;;;;;;;0.93;0.77;;;22.30;66.00;;;;;;5055911;28;20031;-74
2022/03/27 11:48:28;;;;;;;0.77;0.60;;;22.40;67.00;;;;;;5055649;28;20102;-74
2022/03/27 11:50:54;;;;;;;2.08;1.10;;;22.70;67.40;;;;;;5055520;28;20025;-74
2022/03/27 11:53:34;;;;;;;0.15;0.15;;;22.90;67.30;;;;;;5055522;28;20108;-84
2022/03/27 11:56:10;;;;;;;1.13;0.60;;;23.10;68.50;;;;;;5056845;28;20021;-82
2022/03/27 11:58:37;;;;;;;2.50;0.65;;;23.20;67.20;;;;;;5055295;28;20075;-84
2022/03/27 12:01:08;;;;;;;7.78;0.60;;;23.00;64.60;;;;;;5055366;28;20028;-73
2022/03/27 12:03:35;;;;;;;1.65;0.70;;;22.80;64.60;;;;;;5054836;28;20025;-84
2022/03/27 12:06:09;;;;;;;0.47;0.43;;;22.60;65.00;;;;;;5055479;28;20577;-74
2022/03/27 12:08:40;;;;;;;1.25;1.15;;;22.80;65.90;;;;;;5055587;28;20108;-74
2022/03/27 12:11:07;;;;;;;0.77;0.63;;;22.80;64.70;;;;;;5041786;28;20480;-73
2022/03/27 12:13:38;;;;;;;0.80;0.63;;;22.50;64.30;;;;;;5035784;28;20025;-73
2022/03/27 12:16:05;;;;;;;2.38;1.30;;;22.60;64.60;;;;;;5035514;28;20033;-73
2022/03/27 12:18:40;;;;;;;1.35;0.57;;;22.60;65.00;;;;;;5038208;28;20014;-83
2022/03/27 12:21:09;;;;;;;14.32;1.13;;;22.30;64.80;;;;;;5045939;28;20060;-84
2022/03/27 12:23:39;;;;;;;1.13;1.02;;;22.50;65.20;;;;;;5035901;28;20034;-74
2022/03/27 12:32:15;;;;;;;1.63;0.70;;;23.00;64.70;;;;;;5035135;28;20076;-84
2022/03/27 12:34:42;;;;;;;0.40;0.40;;;23.20;65.00;;;;;;5035284;28;20034;-74
2022/03/27 12:37:18;;;;;;;3.72;1.02;;;23.30;64.50;;;;;;5046961;28;20021;-84
2022/03/27 12:39:50;;;;;;;15.77;0.93;;;23.10;64.20;;;;;;5057320;28;20457;-84
2022/03/27 12:42:35;;;;;;;0.73;0.57;;;23.00;64.90;;;;;;5057431;28;20033;-73
2022/03/27 12:45:18;;;;;;;3.90;1.50;;;22.70;66.90;;;;;;5053302;28;20443;-84
2022/03/27 12:47:52;;;;;;;0.70;0.65;;;22.30;65.60;;;;;;5055294;28;20021;-85
2022/03/27 12:50:26;;;;;;;0.70;0.65;;;22.40;66.60;;;;;;5054742;28;20041;-74
2022/03/27 12:52:54;;;;;;;1.52;0.98;;;22.50;66.00;;;;;;5053737;28;20047;-74
2022/03/27 12:55:21;;;;;;;2.95;0.50;;;22.70;65.20;;;;;;5054269;28;20021;-86
2022/03/27 12:57:54;;;;;;;0.90;0.80;;;22.90;64.10;;;;;;5054813;28;20400;-83
2022/03/27 13:00:40;;;;;;;0.90;0.90;;;23.10;65.70;;;;;;5067526;28;20021;-82
2022/03/27 13:03:10;;;;;;;9.48;1.15;;;23.20;63.60;;;;;;5055728;28;20071;-85
2022/03/27 13:05:36;;;;;;;2.63;1.42;;;23.00;62.70;;;;;;5053925;28;20056;-84
2022/03/27 13:08:02;;;;;;;1.45;0.88;;;22.90;63.70;;;;;;5054259;28;20373;-73
2022/03/27 13:10:30;;;;;;;1.95;0.63;;;23.20;63.30;;;;;;5045704;28;20040;-74
2022/03/27 13:13:07;;;;;;;7.88;1.85;;;23.30;65.40;;;;;;5033854;28;20033;-84